Commerce, Mississippi
Current Conditions -  °F | °C
As of 6:15 AM on Tuesday 27 Jan 2015 (Local Time) from KUTA Reporting Station
Clear Clear  
Wind Chill: 34°   Ceiling: Unl
Heat Index: 39°   Visibility: 10mi
Dew Point: 34°   Wind: 8mph
Humidity: 81%   Direction: 300°WNW
Pressure: 30.05"   Gusts: NA
Location:  34.8092°N, 90.3159°W
Report Text: KUTA 271215Z AUTO 30007KT 10SM CLR 04/01 A3005 RMK AO2
Loading
Personal Weather Stations






























Interactive Weather Map New forecast layout! Learn more

10-Day Weather Forecast

Advertisements
Track Severe Weather on mobile